Time;durP1;ratioP1;P1;durP2;ratioP2;P2;SDS_P1;SDS_P2;PMS_P1;PMS_P2;Temp;Humidity;BMP_temperature;BMP_pressure;BME280_temperature;BME280_humidity;BME280_pressure;Samples;Min_cycle;Max_cycle;Signal;HPM_P1;HPM_P2
2023/09/19 00:01:08;;;;;;;6.97;3.55;;;;;;;21.17;73.12;98635.69;4968361;28;20046;-93
2023/09/19 00:03:35;;;;;;;7.65;3.15;;;;;;;21.15;74.58;98660.13;4967369;28;20038;-94
2023/09/19 00:06:04;;;;;;;10.70;2.83;;;;;;;21.26;73.58;98680.97;4969209;28;20053;-93
2023/09/19 00:08:30;;;;;;;7.95;3.53;;;;;;;21.25;73.59;98674.72;4963481;28;20042;-94
2023/09/19 00:11:02;;;;;;;6.32;2.92;;;;;;;21.11;72.58;98637.84;4970228;28;20062;-94
2023/09/19 00:13:28;;;;;;;10.52;3.00;;;;;;;21.28;73.27;98682.59;4971440;28;20047;-94
2023/09/19 00:15:55;;;;;;;8.23;3.20;;;;;;;21.06;73.78;98639.16;4967623;28;20081;-96
2023/09/19 00:18:21;;;;;;;8.80;3.63;;;;;;;21.27;74.43;98691.66;4967092;28;20077;-94
2023/09/19 00:20:49;;;;;;;8.75;3.15;;;;;;;20.87;75.83;98634.19;4965577;28;20039;-94
2023/09/19 00:23:16;;;;;;;10.40;3.47;;;;;;;21.33;76.12;98712.00;4968574;28;20043;-93
2023/09/19 00:25:42;;;;;;;9.25;3.97;;;;;;;20.99;76.55;98676.59;4968638;28;20093;-93
2023/09/19 00:28:09;;;;;;;9.02;3.10;;;;;;;20.57;76.90;98629.09;4966379;28;20043;-94
2023/09/19 00:30:35;;;;;;;6.03;3.33;;;;;;;20.70;77.28;98657.00;4966177;28;20035;-95
2023/09/19 00:33:05;;;;;;;7.55;3.25;;;;;;;20.79;77.96;98688.78;4965257;28;20042;-94
2023/09/19 00:35:31;;;;;;;8.15;3.03;;;;;;;20.65;78.71;98684.34;4965786;28;20047;-95
2023/09/19 00:37:57;;;;;;;6.72;3.13;;;;;;;20.70;79.30;98694.84;4965219;28;20046;-95
2023/09/19 00:40:26;;;;;;;10.13;3.83;;;;;;;20.45;77.90;98628.09;4963891;28;20090;-93
2023/09/19 00:42:52;;;;;;;9.85;3.70;;;;;;;20.59;77.99;98640.69;4971913;28;20038;-93
2023/09/19 00:45:20;;;;;;;6.57;3.25;;;;;;;20.90;77.59;98693.44;4962150;28;20093;-93
2023/09/19 00:47:48;;;;;;;10.90;3.63;;;;;;;20.49;78.43;98627.81;4965959;28;20050;-94
2023/09/19 00:50:17;;;;;;;13.18;3.35;;;;;;;20.66;78.35;98648.25;4962772;28;20045;-95
2023/09/19 00:52:44;;;;;;;6.25;3.30;;;;;;;20.80;78.72;98681.56;4966611;28;20078;-93
2023/09/19 00:55:11;;;;;;;11.55;3.80;;;;;;;20.64;79.28;98657.44;4963718;28;20469;-96
2023/09/19 00:57:39;;;;;;;10.57;3.50;;;;;;;20.32;80.11;98611.91;4965831;28;20039;-94
2023/09/19 01:00:08;;;;;;;7.32;3.58;;;;;;;20.16;81.00;98600.44;4948240;28;20493;-94
2023/09/19 01:02:35;;;;;;;11.10;3.67;;;;;;;20.60;80.88;98655.91;4965655;28;20042;-94
2023/09/19 01:05:01;;;;;;;6.88;3.45;;;;;;;20.45;80.26;98634.41;4969829;28;20043;-92
2023/09/19 01:07:29;;;;;;;8.45;3.65;;;;;;;20.34;80.02;98625.28;4965950;28;20110;-93
2023/09/19 01:09:58;;;;;;;7.47;3.58;;;;;;;20.40;79.72;98614.94;4966084;28;20042;-94
2023/09/19 01:12:34;;;;;;;10.07;3.85;;;;;;;20.39;79.55;98609.66;4967804;28;20057;-92
2023/09/19 01:15:11;;;;;;;8.43;3.85;;;;;;;20.71;79.91;98656.06;4972549;28;20049;-92
2023/09/19 01:17:46;;;;;;;11.13;3.95;;;;;;;20.66;80.22;98660.91;4973114;28;20105;-93
2023/09/19 01:20:23;;;;;;;6.65;3.53;;;;;;;20.43;79.03;98630.09;4970441;28;20144;-93
2023/09/19 01:23:01;;;;;;;8.20;3.78;;;;;;;20.36;78.14;98605.31;4968965;28;20142;-94
2023/09/19 01:25:55;;;;;;;13.43;3.78;;;;;;;20.72;77.18;98637.00;4964913;28;20051;-94
2023/09/19 01:28:36;;;;;;;11.35;3.10;;;;;;;21.03;75.73;98678.06;4970744;28;20198;-93
2023/09/19 01:31:09;;;;;;;9.38;3.53;;;;;;;21.03;74.41;98642.91;4970417;28;20513;-93
2023/09/19 01:33:57;;;;;;;6.38;3.05;;;;;;;21.36;73.67;98678.44;4969780;28;20111;-94
2023/09/19 01:36:23;;;;;;;;;;;;;;;21.34;74.30;98679.44;4968088;28;20047;-92
2023/09/19 01:38:49;;;;;;;9.52;3.95;;;;;;;20.89;74.35;98610.63;4970758;28;20351;-93
2023/09/19 01:41:22;;;;;;;7.72;3.20;;;;;;;20.81;75.21;98613.00;4971592;28;20039;-95
2023/09/19 01:43:50;;;;;;;6.20;2.95;;;;;;;20.84;75.20;98616.38;4968598;28;20054;-95
2023/09/19 01:46:23;;;;;;;9.05;3.28;;;;;;;20.95;74.47;98631.81;4964513;28;20070;-94
2023/09/19 01:48:57;;;;;;;9.13;3.47;;;;;;;21.06;75.08;98655.38;4968353;28;20070;-94
2023/09/19 01:51:32;;;;;;;12.48;4.03;;;;;;;20.98;75.00;98658.63;4968302;28;20490;-95
2023/09/19 01:54:03;;;;;;;13.32;3.58;;;;;;;20.89;74.38;98632.25;4970485;28;20042;-95
2023/09/19 01:56:34;;;;;;;9.40;3.53;;;;;;;21.10;74.10;98657.75;4964533;28;20047;-93
2023/09/19 01:59:04;;;;;;;10.20;3.15;;;;;;;20.99;73.00;98611.72;4969665;28;20070;-94
2023/09/19 02:01:33;;;;;;;6.60;3.10;;;;;;;20.96;72.44;98594.84;4968678;28;20061;-95
2023/09/19 02:03:59;;;;;;;9.07;3.40;;;;;;;21.34;72.43;98665.06;4971331;28;20133;-94
2023/09/19 02:06:25;;;;;;;10.93;3.55;;;;;;;21.08;72.41;98607.47;4970156;28;20046;-95
2023/09/19 02:08:51;;;;;;;7.68;3.20;;;;;;;21.36;70.97;98630.66;4966720;28;20248;-96
2023/09/19 02:11:17;;;;;;;7.80;3.95;;;;;;;21.66;70.73;98662.69;4970981;28;20133;-92
2023/09/19 02:13:43;;;;;;;8.13;3.45;;;;;;;21.44;70.17;98612.03;4974435;28;20404;-93
2023/09/19 02:16:10;;;;;;;8.60;3.42;;;;;;;21.69;70.19;98648.09;4968778;28;20051;-93
2023/09/19 02:18:39;;;;;;;8.63;3.58;;;;;;;21.72;70.08;98645.16;4969466;28;20544;-93
2023/09/19 02:21:06;;;;;;;8.40;3.13;;;;;;;21.67;70.90;98648.19;4972804;28;20046;-93
2023/09/19 02:23:33;;;;;;;7.68;3.70;;;;;;;21.63;71.59;98659.38;4971478;28;20047;-94
2023/09/19 02:26:00;;;;;;;8.80;3.78;;;;;;;21.52;72.11;98669.13;4970496;28;20065;-93
2023/09/19 02:28:29;;;;;;;9.77;3.90;;;;;;;21.29;72.43;98642.88;4969687;28;20077;-93
2023/09/19 02:30:56;;;;;;;10.70;3.97;;;;;;;21.21;73.56;98640.75;4967589;28;20050;-93
2023/09/19 02:33:22;;;;;;;10.82;4.03;;;;;;;21.05;74.42;98629.31;4968537;28;20039;-93
2023/09/19 02:35:50;;;;;;;9.10;3.13;;;;;;;20.87;73.88;98593.66;4968717;28;20046;-93
2023/09/19 02:38:21;;;;;;;8.98;3.35;;;;;;;21.27;74.26;98666.47;4967820;28;20054;-93
2023/09/19 02:40:47;;;;;;;5.85;3.30;;;;;;;21.01;74.64;98631.34;4970834;28;20047;-93
2023/09/19 02:43:13;;;;;;;7.20;3.58;;;;;;;20.71;75.04;98597.47;4970786;28;20098;-94
2023/09/19 02:45:39;;;;;;;9.32;3.47;;;;;;;20.93;74.31;98640.03;4972714;28;20078;-95
2023/09/19 02:48:07;;;;;;;12.65;3.90;;;;;;;20.96;73.38;98620.03;4971447;28;20127;-94
2023/09/19 02:50:33;;;;;;;11.40;3.72;;;;;;;21.00;73.10;98616.13;4969392;28;20050;-94
2023/09/19 02:53:01;;;;;;;7.60;3.05;;;;;;;21.12;72.73;98612.53;4970559;28;20051;-93
2023/09/19 02:55:27;;;;;;;7.97;3.63;;;;;;;21.17;72.89;98638.38;4969920;28;20053;-93
2023/09/19 02:57:55;;;;;;;5.20;2.95;;;;;;;21.28;73.14;98666.38;4976010;28;20070;-93
2023/09/19 03:00:22;;;;;;;9.27;3.35;;;;;;;20.89;73.88;98610.63;4971141;28;20106;-93
2023/09/19 03:02:48;;;;;;;6.43;3.63;;;;;;;20.92;74.49;98605.00;4970252;28;20046;-93
2023/09/19 03:05:14;;;;;;;6.78;3.00;;;;;;;21.15;74.48;98629.53;4977383;28;20055;-94
2023/09/19 03:07:42;;;;;;;8.70;3.60;;;;;;;20.97;75.19;98605.53;4973933;28;20038;-93
2023/09/19 03:10:10;;;;;;;8.13;3.55;;;;;;;20.96;75.51;98605.66;4970093;28;20041;-93
2023/09/19 03:12:36;;;;;;;11.52;4.10;;;;;;;21.06;75.79;98623.78;4973713;28;20039;-92
2023/09/19 03:15:04;;;;;;;9.65;3.60;;;;;;;21.21;76.16;98648.88;4975471;28;20103;-94
2023/09/19 03:17:30;;;;;;;6.93;3.28;;;;;;;21.02;76.05;98611.47;4970188;28;20043;-94
2023/09/19 03:19:57;;;;;;;9.43;4.00;;;;;;;20.87;76.76;98585.56;4969967;28;20038;-93
2023/09/19 03:22:24;;;;;;;10.23;4.13;;;;;;;21.17;76.65;98632.97;4972856;28;20051;-94
2023/09/19 03:24:50;;;;;;;8.45;4.38;;;;;;;20.85;77.47;98584.81;4970172;28;20114;-94
2023/09/19 03:27:18;;;;;;;10.40;4.28;;;;;;;20.78;78.10;98572.72;4970869;28;20429;-93
2023/09/19 03:29:44;;;;;;;12.40;3.83;;;;;;;20.82;77.94;98576.91;4972375;28;20043;-94
2023/09/19 03:32:10;;;;;;;9.52;4.07;;;;;;;20.95;79.01;98607.50;4969496;28;20046;-93
2023/09/19 03:34:40;;;;;;;9.63;3.92;;;;;;;21.04;78.88;98623.03;4969962;28;20563;-94
2023/09/19 03:37:06;;;;;;;;;;;;;;;21.08;79.91;98646.19;4973172;28;20039;-95
2023/09/19 03:39:35;;;;;;;8.63;4.68;;;;;;;20.62;80.82;98586.44;4975886;28;19929;-94
2023/09/19 03:42:03;;;;;;;11.88;3.53;;;;;;;20.62;80.43;98565.69;4972115;28;20047;-93
2023/09/19 03:44:31;;;;;;;8.68;3.70;;;;;;;21.04;81.24;98633.84;4976593;28;20110;-93
2023/09/19 03:46:57;;;;;;;13.88;4.00;;;;;;;20.86;81.99;98605.44;4970664;28;20042;-94
2023/09/19 03:49:23;;;;;;;10.90;4.50;;;;;;;20.63;82.71;98566.56;4973627;28;20086;-94
2023/09/19 03:51:49;;;;;;;10.80;4.07;;;;;;;20.94;82.52;98605.75;4975658;28;20043;-93
2023/09/19 03:54:16;;;;;;;7.22;4.03;;;;;;;21.07;82.84;98620.09;4972045;28;20053;-94
2023/09/19 03:56:43;;;;;;;7.97;3.97;;;;;;;20.69;83.03;98566.13;4976769;28;20149;-93
2023/09/19 03:59:09;;;;;;;7.60;3.85;;;;;;;21.05;83.71;98622.06;4977063;28;20051;-93
2023/09/19 04:01:37;;;;;;;7.82;4.32;;;;;;;20.64;84.75;98569.13;4973510;28;20043;-93
2023/09/19 04:04:08;;;;;;;11.77;4.68;;;;;;;20.63;84.91;98570.13;4972541;28;20070;-93
2023/09/19 04:06:35;;;;;;;10.95;4.88;;;;;;;20.59;85.86;98563.22;4969899;28;20034;-93
2023/09/19 04:09:01;;;;;;;8.23;4.47;;;;;;;20.56;86.24;98560.72;4974770;28;20038;-94
2023/09/19 04:11:27;;;;;;;9.18;4.22;;;;;;;20.77;86.97;98598.84;4973935;28;20106;-93
2023/09/19 04:13:53;;;;;;;9.15;4.43;;;;;;;20.87;87.77;98640.47;4974379;28;20043;-94
2023/09/19 04:16:19;;;;;;;11.38;4.65;;;;;;;20.45;88.83;98579.50;4969801;28;20047;-95
2023/09/19 04:18:47;;;;;;;9.52;4.35;;;;;;;20.64;88.77;98589.91;4971374;28;20050;-93
2023/09/19 04:21:13;;;;;;;14.55;5.13;;;;;;;20.43;89.17;98573.38;4976952;28;20057;-93
2023/09/19 04:23:39;;;;;;;8.43;5.00;;;;;;;20.60;93.18;98627.09;4974297;28;20078;-95
2023/09/19 04:26:05;;;;;;;8.38;4.25;;;;;;;20.46;93.65;98605.53;4971233;28;20038;-92
2023/09/19 04:28:32;;;;;;;10.45;4.55;;;;;;;20.39;94.12;98607.81;4974776;28;20039;-94
2023/09/19 04:30:59;;;;;;;9.35;4.90;;;;;;;20.30;94.74;98576.91;4975360;28;20047;-93
2023/09/19 04:33:27;;;;;;;10.30;4.70;;;;;;;20.05;96.24;98556.16;4976443;28;20050;-94
2023/09/19 04:35:55;;;;;;;8.18;4.63;;;;;;;19.99;96.74;98561.09;4972884;28;20058;-93
2023/09/19 04:38:21;;;;;;;8.38;4.15;;;;;;;19.82;99.54;98576.63;4968867;28;20062;-93
2023/09/19 04:40:47;;;;;;;9.48;4.78;;;;;;;20.02;98.76;98609.50;4973098;28;20081;-94
2023/09/19 04:43:15;;;;;;;10.95;4.97;;;;;;;20.09;98.24;98633.25;4973275;28;20049;-93
2023/09/19 04:45:41;;;;;;;11.77;5.03;;;;;;;19.64;100.00;98581.38;4968002;28;20039;-93
2023/09/19 04:48:08;;;;;;;8.95;4.97;;;;;;;19.58;100.00;98571.03;4987333;28;20047;-95
2023/09/19 04:50:34;;;;;;;11.35;5.93;;;;;;;19.55;100.00;98583.84;4976871;28;20408;-94
2023/09/19 04:53:03;;;;;;;10.77;4.75;;;;;;;19.95;100.00;98649.53;4973104;28;20042;-94
2023/09/19 04:55:30;;;;;;;8.50;5.05;;;;;;;19.64;100.00;98600.28;4975652;28;20050;-93
2023/09/19 04:57:56;;;;;;;9.93;4.30;;;;;;;19.49;100.00;98602.16;4975324;28;20142;-92
2023/09/19 05:00:24;;;;;;;7.85;4.72;;;;;;;19.50;100.00;98600.34;4972020;28;20493;-94
2023/09/19 05:02:51;;;;;;;9.35;5.25;;;;;;;19.49;100.00;98599.47;4969407;28;20041;-94
2023/09/19 05:05:18;;;;;;;11.10;5.60;;;;;;;19.88;100.00;98661.69;4973810;28;20061;-93
2023/09/19 05:07:45;;;;;;;12.32;5.20;;;;;;;19.49;100.00;98595.91;4973979;28;20101;-94
2023/09/19 05:10:13;;;;;;;9.95;5.05;;;;;;;19.40;100.00;98605.47;4977264;28;20213;-93
2023/09/19 05:12:46;;;;;;;9.98;4.70;;;;;;;19.66;100.00;98606.44;4981727;28;20058;-94
2023/09/19 05:15:15;;;;;;;11.57;5.13;;;;;;;19.27;100.00;98607.25;4989853;28;20042;-94
2023/09/19 05:17:48;;;;;;;10.52;4.70;;;;;;;19.67;100.00;98674.75;5012768;28;20050;-94
2023/09/19 05:20:24;;;;;;;11.73;4.97;;;;;;;19.56;100.00;98653.88;4975914;28;20043;-92
2023/09/19 05:22:50;;;;;;;9.75;4.65;;;;;;;19.77;100.00;98669.66;4981881;28;20051;-94
2023/09/19 05:25:18;;;;;;;10.80;4.88;;;;;;;19.74;100.00;98689.59;4979006;28;20130;-93
2023/09/19 05:27:47;;;;;;;14.55;5.97;;;;;;;19.69;100.00;98645.81;4978501;28;20038;-93
2023/09/19 05:30:14;;;;;;;11.65;5.68;;;;;;;19.70;100.00;98658.41;4977513;28;20038;-94
2023/09/19 05:32:41;;;;;;;9.68;5.50;;;;;;;19.94;100.00;98663.97;4981583;28;20382;-94
2023/09/19 05:35:09;;;;;;;15.55;4.75;;;;;;;19.72;100.00;98642.97;4976474;28;20046;-95
2023/09/19 05:37:36;;;;;;;8.80;4.45;;;;;;;19.97;100.00;98644.88;4974926;28;20489;-94
2023/09/19 05:40:07;;;;;;;10.80;5.05;;;;;;;20.30;100.00;98706.53;4960307;28;20050;-94
2023/09/19 05:42:41;;;;;;;10.73;5.22;;;;;;;20.35;100.00;98705.34;4976846;28;20051;-94
2023/09/19 05:45:11;;;;;;;13.07;5.03;;;;;;;20.06;100.00;98632.59;4976427;28;20046;-94
2023/09/19 05:47:37;;;;;;;10.65;5.25;;;;;;;20.23;100.00;98637.72;4971914;28;20080;-95
2023/09/19 05:50:05;;;;;;;11.43;5.68;;;;;;;20.29;100.00;98707.47;4973901;28;20105;-95
2023/09/19 05:52:31;;;;;;;11.40;5.15;;;;;;;20.33;100.00;98715.41;4971158;28;20137;-94
2023/09/19 05:54:57;;;;;;;10.82;5.13;;;;;;;20.41;100.00;98677.94;4985720;28;20081;-96
2023/09/19 05:57:24;;;;;;;14.02;4.88;;;;;;;20.41;100.00;98680.63;4968644;28;20018;-96
2023/09/19 05:59:52;;;;;;;14.60;5.35;;;;;;;20.46;100.00;98657.72;4965222;28;20038;-95
2023/09/19 06:02:19;;;;;;;12.18;5.80;;;;;;;20.89;100.00;98697.13;4964228;28;20066;-94
2023/09/19 06:04:45;;;;;;;13.20;4.88;;;;;;;20.81;100.00;98664.38;4962740;28;20045;-94
2023/09/19 06:07:12;;;;;;;8.13;4.38;;;;;;;21.09;100.00;98699.25;4963064;28;20145;-96
2023/09/19 06:09:38;;;;;;;10.60;5.35;;;;;;;21.22;100.00;98717.31;4962546;28;20035;-95
2023/09/19 06:12:05;;;;;;;10.35;5.15;;;;;;;21.25;100.00;98717.97;4963510;28;20042;-94
2023/09/19 06:14:31;;;;;;;11.70;5.30;;;;;;;21.21;100.00;98710.16;4962929;28;20035;-95
2023/09/19 06:17:00;;;;;;;11.20;5.15;;;;;;;21.37;100.00;98729.75;4964794;28;20137;-96
2023/09/19 06:19:26;;;;;;;12.68;4.95;;;;;;;21.56;100.00;98744.66;4965762;28;20050;-95
2023/09/19 06:21:53;;;;;;;14.52;5.38;;;;;;;21.23;100.00;98676.66;4966605;28;20043;-95
2023/09/19 06:24:21;;;;;;;10.25;4.65;;;;;;;21.22;100.00;98674.06;4966669;28;20105;-95
2023/09/19 06:26:47;;;;;;;9.25;4.72;;;;;;;21.21;100.00;98685.84;4971414;28;20050;-96
2023/09/19 06:29:14;;;;;;;10.25;5.45;;;;;;;21.12;100.00;98665.72;4970956;28;20045;-96
2023/09/19 06:31:42;;;;;;;12.65;5.20;;;;;;;21.26;100.00;98694.50;4969173;28;20058;-96
2023/09/19 06:34:10;;;;;;;14.95;5.32;;;;;;;21.54;100.00;98725.84;4971041;28;20054;-95
2023/09/19 06:36:41;;;;;;;13.55;4.90;;;;;;;21.35;100.00;98683.00;4994215;28;20050;-95
2023/09/19 06:39:26;;;;;;;12.93;5.03;;;;;;;21.74;100.00;98743.34;4997756;28;20460;-96
2023/09/19 06:41:53;;;;;;;14.45;5.68;;;;;;;21.38;100.00;98676.50;4990477;28;20050;-95
2023/09/19 06:44:36;;;;;;;13.32;6.25;;;;;;;21.37;100.00;98664.81;4990041;28;20038;-96
2023/09/19 06:47:03;;;;;;;15.70;6.10;;;;;;;21.44;100.00;98668.84;4991677;28;20058;-96
2023/09/19 06:49:31;;;;;;;20.25;7.03;;;;;;;21.78;100.00;98720.47;4987286;28;20046;-96
2023/09/19 06:51:58;;;;;;;18.23;5.95;;;;;;;21.60;99.44;98674.00;4971302;28;20134;-95
2023/09/19 06:54:42;;;;;;;12.63;6.00;;;;;;;22.08;98.91;98743.56;4973159;28;20027;-95
2023/09/19 06:57:09;;;;;;;17.65;5.50;;;;;;;21.97;98.26;98720.00;4973483;28;20050;-94
2023/09/19 06:59:37;;;;;;;14.80;5.57;;;;;;;22.19;98.06;98745.47;4987939;28;20031;-96
2023/09/19 07:02:05;;;;;;;13.85;5.88;;;;;;;21.84;97.80;98690.25;4988157;28;20050;-96
2023/09/19 07:04:33;;;;;;;15.00;5.55;;;;;;;22.19;97.55;98751.72;4985614;28;20053;-94
2023/09/19 07:06:59;;;;;;;14.35;5.70;;;;;;;21.73;98.67;98698.31;4984529;28;20038;-95
2023/09/19 07:09:27;;;;;;;12.30;5.72;;;;;;;22.06;98.66;98737.38;4983456;28;20056;-96
2023/09/19 07:11:53;;;;;;;11.05;5.43;;;;;;;21.85;99.43;98707.34;4985419;28;20496;-96
2023/09/19 07:14:19;;;;;;;13.70;5.97;;;;;;;21.83;100.00;98693.06;4986032;28;20050;-95
2023/09/19 07:16:47;;;;;;;14.85;5.78;;;;;;;21.93;100.00;98702.25;4986259;28;20047;-96
2023/09/19 07:19:15;;;;;;;14.52;5.88;;;;;;;22.13;100.00;98746.78;4988989;28;20062;-95
2023/09/19 07:21:42;;;;;;;11.52;5.22;;;;;;;22.15;100.00;98728.56;4988357;28;20136;-95
2023/09/19 07:24:08;;;;;;;19.92;5.95;;;;;;;22.08;99.96;98709.22;4969318;28;20070;-96
2023/09/19 07:26:37;;;;;;;13.73;6.05;;;;;;;22.03;100.00;98708.66;4967318;28;20039;-96
2023/09/19 07:29:03;;;;;;;11.85;5.75;;;;;;;22.11;100.00;98708.09;4975546;28;20047;-96
2023/09/19 07:31:30;;;;;;;15.13;5.68;;;;;;;22.08;99.16;98697.53;4971069;28;20054;-96
2023/09/19 07:33:57;;;;;;;16.80;6.00;;;;;;;21.95;100.00;98724.66;4972006;28;20078;-95
2023/09/19 07:36:24;;;;;;;13.50;6.50;;;;;;;21.89;100.00;98720.53;4970048;28;20500;-96
2023/09/19 07:38:51;;;;;;;11.57;4.95;;;;;;;22.01;100.00;98747.69;4974510;28;20053;-96
2023/09/19 07:41:21;;;;;;;11.65;5.47;;;;;;;22.10;100.00;98790.34;4969286;28;20519;-96
2023/09/19 07:43:47;;;;;;;12.32;5.70;;;;;;;21.98;100.00;98756.91;4965710;28;20027;-95
2023/09/19 07:46:13;;;;;;;16.92;6.78;;;;;;;21.95;100.00;98763.41;4965651;28;20050;-96
2023/09/19 07:48:40;;;;;;;13.35;5.78;;;;;;;21.91;100.00;98751.06;4964573;28;20057;-95
2023/09/19 07:51:07;;;;;;;15.20;5.82;;;;;;;21.94;100.00;98725.59;4963588;28;20080;-94
2023/09/19 07:53:35;;;;;;;11.75;6.25;;;;;;;22.32;100.00;98749.84;4971486;28;20143;-96
2023/09/19 07:56:07;;;;;;;14.40;6.13;;;;;;;22.32;100.00;98732.75;4971209;28;20074;-94
2023/09/19 07:58:35;;;;;;;12.95;6.25;;;;;;;22.52;100.00;98747.47;4969565;28;20062;-96
2023/09/19 08:01:06;;;;;;;11.48;6.00;;;;;;;22.95;100.00;98782.13;4972543;28;20043;-95
2023/09/19 08:03:32;;;;;;;14.48;7.22;;;;;;;22.96;100.00;98729.59;4971533;28;20500;-95
2023/09/19 08:05:58;;;;;;;12.02;6.90;;;;;;;23.38;99.32;98716.34;4971100;28;20382;-94
2023/09/19 08:08:26;;;;;;;13.60;5.88;;;;;;;23.94;96.66;98762.47;4970108;28;20520;-94
2023/09/19 08:10:53;;;;;;;9.30;5.72;;;;;;;23.99;96.25;98748.50;4971165;28;20085;-94
2023/09/19 08:13:21;;;;;;;12.32;6.03;;;;;;;24.32;96.25;98793.75;4976577;28;20049;-94
2023/09/19 08:15:47;;;;;;;13.43;5.85;;;;;;;24.19;95.44;98733.25;4972524;28;20497;-94
2023/09/19 08:18:14;;;;;;;14.57;6.03;;;;;;;24.15;93.99;98724.50;4971614;28;20054;-95
2023/09/19 08:20:42;;;;;;;11.05;5.93;;;;;;;24.25;92.59;98719.16;4970792;28;20070;-95
2023/09/19 08:23:08;;;;;;;10.63;5.07;;;;;;;24.35;94.22;98760.88;4975181;28;20057;-95
2023/09/19 08:25:34;;;;;;;12.50;6.15;;;;;;;24.27;94.66;98725.34;4975212;28;20046;-95
2023/09/19 08:28:03;;;;;;;10.18;6.22;;;;;;;24.48;96.12;98743.53;4974087;28;20039;-95
2023/09/19 08:30:31;;;;;;;13.90;5.50;;;;;;;24.54;94.16;98759.34;4976949;28;20054;-93
2023/09/19 08:32:58;;;;;;;10.68;5.50;;;;;;;24.35;93.11;98728.28;4974863;28;20101;-94
2023/09/19 08:35:24;;;;;;;10.55;5.32;;;;;;;24.46;93.28;98751.78;4974739;28;20108;-95
2023/09/19 08:37:51;;;;;;;12.50;5.05;;;;;;;24.17;95.48;98767.84;4989252;28;20046;-95
2023/09/19 08:40:21;;;;;;;10.52;5.55;;;;;;;23.76;96.85;98740.38;4980663;28;20043;-95
2023/09/19 08:42:50;;;;;;;11.50;6.22;;;;;;;24.06;96.97;98741.56;4974830;28;20149;-94
2023/09/19 08:45:16;;;;;;;12.65;5.80;;;;;;;24.16;95.79;98736.25;4974546;28;20047;-94
2023/09/19 08:47:47;;;;;;;13.73;5.60;;;;;;;24.29;95.38;98742.38;4974700;28;20038;-94
2023/09/19 08:50:19;;;;;;;15.82;5.53;;;;;;;24.42;94.40;98749.47;4974270;28;20535;-94
2023/09/19 08:52:47;;;;;;;14.60;5.35;;;;;;;24.41;93.83;98732.31;4955934;29;20047;-95
2023/09/19 08:55:20;;;;;;;15.70;6.15;;;;;;;24.58;91.70;98742.66;4980239;28;20085;-94
2023/09/19 08:57:49;;;;;;;19.85;6.82;;;;;;;24.53;92.88;98753.06;4974544;28;20054;-94
2023/09/19 09:00:18;;;;;;;15.32;5.88;;;;;;;24.63;93.46;98779.47;4992549;28;20038;-94
2023/09/19 09:02:47;;;;;;;16.50;5.85;;;;;;;24.50;93.42;98738.84;4972820;28;20057;-95
2023/09/19 09:05:15;;;;;;;18.58;6.95;;;;;;;25.21;91.01;98779.91;4977475;28;20042;-94
2023/09/19 09:07:42;;;;;;;22.83;7.20;;;;;;;25.30;91.25;98783.69;4973813;28;20087;-96
2023/09/19 09:10:08;;;;;;;20.92;7.00;;;;;;;25.37;90.28;98773.97;4973973;28;20078;-95
2023/09/19 09:12:39;;;;;;;16.30;6.60;;;;;;;25.15;90.43;98773.09;4973944;28;20043;-95
2023/09/19 09:15:06;;;;;;;18.38;6.05;;;;;;;25.38;88.99;98734.88;4973239;28;20051;-93
2023/09/19 09:17:32;;;;;;;16.48;5.78;;;;;;;25.72;86.08;98734.56;4975645;28;20493;-94
2023/09/19 09:20:00;;;;;;;12.05;5.63;;;;;;;26.15;85.27;98779.75;4992436;28;20046;-95
2023/09/19 09:22:26;;;;;;;14.20;6.25;;;;;;;25.85;83.56;98742.47;4965283;28;20019;-95
2023/09/19 09:24:54;;;;;;;17.75;5.55;;;;;;;25.78;84.75;98739.47;4973687;28;20069;-95
2023/09/19 09:27:23;;;;;;;12.93;5.43;;;;;;;25.86;85.41;98750.53;4974096;28;20058;-95
2023/09/19 09:29:51;;;;;;;16.25;6.68;;;;;;;25.65;85.78;98745.16;4972371;28;20138;-94
2023/09/19 09:32:19;;;;;;;11.25;5.93;;;;;;;25.92;84.55;98719.19;4973072;28;20073;-96
2023/09/19 09:34:47;;;;;;;12.35;5.22;;;;;;;26.32;82.43;98719.06;4978009;28;20051;-96
2023/09/19 09:37:19;;;;;;;12.55;5.20;;;;;;;26.71;80.34;98718.25;4973085;28;20134;-95
2023/09/19 09:39:56;;;;;;;15.38;6.63;;;;;;;27.20;77.97;98749.88;4971106;28;20066;-95
2023/09/19 09:42:35;;;;;;;10.00;4.68;;;;;;;27.20;78.25;98771.72;4956157;28;20042;-94
2023/09/19 09:45:19;;;;;;;10.50;4.90;;;;;;;26.71;79.21;98721.81;4947344;29;20517;-95
2023/09/19 09:51:08;;;;;;;12.07;5.55;;;;;;;26.56;78.27;98701.44;5144500;27;20366;-95
2023/09/19 09:53:37;;;;;;;11.30;4.72;;;;;;;26.58;78.28;98715.81;5124315;27;20069;-96
2023/09/19 09:56:05;;;;;;;12.85;5.00;;;;;;;26.70;78.59;98711.94;5123406;28;20142;-94
2023/09/19 09:58:32;;;;;;;10.15;4.70;;;;;;;26.72;76.29;98712.66;5122234;28;20043;-96
2023/09/19 10:01:08;;;;;;;19.58;4.18;;;;;;;26.64;76.77;98693.41;5124221;28;20051;-96
2023/09/19 10:03:39;;;;;;;18.48;5.57;;;;;;;26.68;76.06;98696.72;5122226;28;20111;-94
2023/09/19 10:06:25;;;;;;;11.02;4.18;;;;;;;26.67;76.79;98716.81;5119905;28;20044;-94
2023/09/19 10:09:10;;;;;;;13.85;5.05;;;;;;;26.84;77.01;98746.94;5116792;28;20495;-96
2023/09/19 10:11:44;;;;;;;9.75;4.47;;;;;;;26.67;75.95;98704.03;5118719;28;20045;-94
2023/09/19 10:14:12;;;;;;;16.08;5.05;;;;;;;26.97;74.84;98732.13;5119119;28;20039;-93
2023/09/19 10:16:44;;;;;;;13.48;5.15;;;;;;;26.64;74.46;98677.91;5118376;28;20042;-94
2023/09/19 10:19:13;;;;;;;14.40;3.88;;;;;;;27.02;73.37;98697.94;5119695;28;20055;-94
2023/09/19 10:21:43;;;;;;;12.75;4.30;;;;;;;27.55;70.75;98722.94;5122043;28;20035;-94
2023/09/19 10:24:09;;;;;;;8.93;3.83;;;;;;;27.75;67.49;98707.28;5123900;28;20035;-93
2023/09/19 10:26:36;;;;;;;8.05;3.65;;;;;;;27.77;67.44;98691.59;5120928;28;20130;-93
2023/09/19 10:29:07;;;;;;;8.35;4.15;;;;;;;27.74;67.78;98681.00;5121321;28;20130;-94
2023/09/19 10:31:34;;;;;;;9.32;3.38;;;;;;;27.99;63.26;98723.16;5120617;28;20081;-94
2023/09/19 10:34:04;;;;;;;10.57;3.70;;;;;;;28.03;62.95;98692.59;5121519;28;20102;-93
2023/09/19 10:36:35;;;;;;;13.85;3.60;;;;;;;28.35;63.86;98717.72;5121179;28;20040;-94
2023/09/19 10:39:06;;;;;;;13.13;3.80;;;;;;;28.30;62.83;98711.84;5120987;28;20043;-94
2023/09/19 10:41:34;;;;;;;13.70;4.80;;;;;;;28.18;61.61;98700.28;5119076;28;20456;-94
2023/09/19 10:44:05;;;;;;;10.95;3.55;;;;;;;28.25;61.56;98676.75;5120721;28;20108;-94
2023/09/19 10:46:32;;;;;;;12.60;3.63;;;;;;;28.55;61.68;98707.50;5118711;28;20485;-95
2023/09/19 10:48:59;;;;;;;8.70;3.83;;;;;;;28.40;61.59;98669.72;5117169;28;20035;-93
2023/09/19 10:51:31;;;;;;;12.95;4.13;;;;;;;28.56;61.50;98671.78;5117249;28;20102;-94
2023/09/19 10:54:06;;;;;;;12.13;3.47;;;;;;;28.64;60.08;98701.06;5117005;28;20393;-92
2023/09/19 10:56:37;;;;;;;10.30;3.40;;;;;;;28.78;59.02;98694.16;5115516;28;20035;-94
2023/09/19 10:59:08;;;;;;;7.70;3.38;;;;;;;28.66;57.83;98678.00;5116273;28;20047;-93
2023/09/19 11:01:44;;;;;;;12.45;3.38;;;;;;;28.63;56.79;98667.41;5106240;28;20043;-92
2023/09/19 11:04:31;;;;;;;9.88;3.63;;;;;;;28.71;58.48;98680.25;5103204;28;20036;-95
2023/09/19 11:07:03;;;;;;;8.10;3.42;;;;;;;28.87;57.38;98704.19;5101802;28;20523;-91
2023/09/19 11:09:53;;;;;;;9.82;4.47;;;;;;;28.91;58.05;98689.16;5102650;28;20031;-93
2023/09/19 11:12:48;;;;;;;11.23;3.28;;;;;;;28.55;58.57;98650.91;5103528;28;20043;-94
2023/09/19 11:15:47;;;;;;;9.40;3.45;;;;;;;28.50;57.37;98666.06;5101732;28;20130;-93
2023/09/19 11:18:46;;;;;;;9.75;2.90;;;;;;;28.77;57.14;98690.56;5101228;28;20044;-93
2023/09/19 11:21:42;;;;;;;10.65;3.40;;;;;;;28.92;56.30;98688.13;5098944;28;20455;-93
2023/09/19 11:24:30;;;;;;;11.25;3.78;;;;;;;28.71;53.96;98661.09;5098764;28;20131;-92
2023/09/19 11:27:13;;;;;;;6.80;3.00;;;;;;;28.66;53.81;98641.59;5100711;28;20067;-94
2023/09/19 11:29:40;;;;;;;8.18;2.85;;;;;;;29.19;53.09;98680.78;5100228;28;20054;-92
2023/09/19 11:32:06;;;;;;;7.45;2.75;;;;;;;29.21;52.78;98676.88;5098357;28;20093;-93
2023/09/19 11:34:39;;;;;;;11.85;3.95;;;;;;;28.99;53.05;98694.66;5099470;28;20161;-92
2023/09/19 11:38:10;;;;;;;9.07;2.83;;;;;;;28.12;53.49;98654.44;5097848;28;20052;-92
2023/09/19 11:40:37;;;;;;;8.95;2.92;;;;;;;28.35;55.15;98674.81;5097600;28;20557;-94